createdAt,value
2022-11-12T00:00:44.198Z,15.43
2022-11-12T00:06:05.914Z,11.30
2022-11-12T00:11:27.596Z,14.63
2022-11-12T00:16:49.314Z,16.77
2022-11-12T00:22:11.086Z,14.80
2022-11-12T00:27:33.666Z,13.97
2022-11-12T00:32:55.338Z,12.10
2022-11-12T00:38:17.074Z,12.87
2022-11-12T00:43:38.771Z,11.63
2022-11-12T00:49:00.514Z,11.40
2022-11-12T00:54:22.221Z,13.50
2022-11-12T00:59:43.914Z,16.37
2022-11-12T01:05:05.783Z,13.23
2022-11-12T01:10:27.611Z,11.83
2022-11-12T01:15:49.344Z,12.33
2022-11-12T01:21:11.351Z,12.93
2022-11-12T01:26:33.119Z,14.70
2022-11-12T01:31:54.857Z,13.07
2022-11-12T01:37:16.535Z,18.27
2022-11-12T01:42:39.114Z,14.07
2022-11-12T01:48:01.441Z,12.40
2022-11-12T01:53:27.711Z,13.80
2022-11-12T01:58:53.850Z,13.90
2022-11-12T02:04:16.333Z,10.87
2022-11-12T02:09:38.176Z,10.63
2022-11-12T02:15:00.090Z,10.57
2022-11-12T02:20:21.855Z,9.57
2022-11-12T02:25:43.563Z,11.33
2022-11-12T02:31:05.356Z,9.93
2022-11-12T02:36:27.989Z,10.50
2022-11-12T02:41:49.790Z,11.53
2022-11-12T02:47:11.457Z,11.00
2022-11-12T02:52:33.175Z,11.30
2022-11-12T02:57:58.513Z,12.60
2022-11-12T03:03:20.235Z,17.13
2022-11-12T03:08:41.898Z,10.33
2022-11-12T03:14:03.616Z,10.83
2022-11-12T03:19:25.310Z,11.73
2022-11-12T03:24:47.061Z,9.50
2022-11-12T03:30:09.031Z,10.83
2022-11-12T03:35:31.977Z,13.30
2022-11-12T03:40:53.652Z,13.10
2022-11-12T03:46:15.327Z,10.53
2022-11-12T03:51:36.998Z,7.37
2022-11-12T03:56:58.672Z,7.90
2022-11-12T04:02:20.339Z,8.53
2022-11-12T04:08:00.515Z,7.63
2022-11-12T04:13:28.098Z,6.80
2022-11-12T04:19:10.147Z,6.50
2022-11-12T04:24:52.880Z,7.27
2022-11-12T04:30:18.632Z,6.47
2022-11-12T04:35:40.317Z,6.73
2022-11-12T04:41:20.625Z,6.77
2022-11-12T04:46:42.339Z,7.40
2022-11-12T04:52:07.234Z,6.10
2022-11-12T04:57:29.077Z,5.90
2022-11-12T05:02:50.793Z,5.57
2022-11-12T05:08:12.487Z,5.63
2022-11-12T05:13:34.181Z,7.93
2022-11-12T05:18:55.872Z,6.97
2022-11-12T05:24:40.117Z,6.23
2022-11-12T05:29:59.279Z,6.03
2022-11-12T05:35:21.002Z,6.83
2022-11-12T05:40:45.156Z,5.57
2022-11-12T05:46:07.039Z,5.33
2022-11-12T05:51:28.762Z,5.83
2022-11-12T05:56:51.838Z,7.37
2022-11-12T06:02:13.582Z,5.57
2022-11-12T06:07:35.307Z,5.37
2022-11-12T06:12:57.179Z,5.20
2022-11-12T06:18:18.879Z,5.80
2022-11-12T06:23:40.543Z,6.13
2022-11-12T06:29:02.226Z,5.73
2022-11-12T06:34:23.913Z,6.70
2022-11-12T06:39:45.582Z,8.87
2022-11-12T06:45:07.877Z,4.93
2022-11-12T06:50:29.608Z,4.77
2022-11-12T06:55:51.965Z,4.70
2022-11-12T07:01:15.427Z,6.43
2022-11-12T07:06:37.258Z,5.17
2022-11-12T07:11:59.068Z,5.27
2022-11-12T07:17:21.958Z,6.57
2022-11-12T07:22:43.698Z,4.70
2022-11-12T07:28:05.370Z,6.70
2022-11-12T07:33:28.822Z,4.50
2022-11-12T07:38:53.213Z,4.57
2022-11-12T07:44:14.870Z,5.03
2022-11-12T07:49:36.543Z,4.70
2022-11-12T07:54:58.189Z,6.67
2022-11-12T08:00:19.988Z,7.87
2022-11-12T08:05:41.970Z,6.00
2022-11-12T08:11:03.767Z,6.07
2022-11-12T08:16:25.564Z,6.17
2022-11-12T08:21:47.295Z,8.63
2022-11-12T08:27:09.026Z,6.87
2022-11-12T08:32:30.980Z,6.47
2022-11-12T08:37:58.440Z,11.10
2022-11-12T08:43:20.145Z,7.90
2022-11-12T08:48:41.873Z,8.57
2022-11-12T08:54:03.649Z,8.40
2022-11-12T08:59:25.428Z,10.97
2022-11-12T09:04:47.101Z,8.80
2022-11-12T09:10:08.886Z,10.10
2022-11-12T09:15:36.838Z,9.00
2022-11-12T09:21:08.532Z,13.53
2022-11-12T09:26:30.207Z,11.37
2022-11-12T09:31:51.860Z,8.30
2022-11-12T09:37:13.619Z,8.70
2022-11-12T09:42:36.944Z,9.30
2022-11-12T09:48:05.459Z,9.00
2022-11-12T09:54:08.782Z,9.10
2022-11-12T09:59:33.269Z,10.07
2022-11-12T10:05:06.753Z,8.40
2022-11-12T10:10:32.656Z,8.23
2022-11-12T10:16:15.791Z,7.80
2022-11-12T10:21:57.981Z,7.68
2022-11-12T10:27:22.643Z,7.13
2022-11-12T10:32:46.198Z,8.18
2022-11-12T10:38:14.748Z,10.20
2022-11-12T10:43:36.650Z,9.87
2022-11-12T10:49:19.928Z,11.82
2022-11-12T10:54:41.834Z,10.52
2022-11-12T11:00:09.472Z,9.68
2022-11-12T11:05:31.146Z,10.43
2022-11-12T11:11:14.000Z,9.25
2022-11-12T11:16:51.260Z,8.07
2022-11-12T11:22:42.633Z,9.10
2022-11-12T11:28:19.054Z,11.00
2022-11-12T11:33:55.009Z,11.73
2022-11-12T11:39:23.162Z,10.15
2022-11-12T11:45:04.863Z,8.98
2022-11-12T11:50:29.162Z,9.25
2022-11-12T11:56:03.733Z,10.18
2022-11-12T12:01:34.810Z,9.68
2022-11-12T12:07:15.245Z,8.57
2022-11-12T12:12:47.148Z,10.10
2022-11-12T12:18:39.302Z,15.05
2022-11-12T12:24:20.511Z,8.27
2022-11-12T12:30:06.864Z,5.70
2022-11-12T12:35:34.568Z,6.00
2022-11-12T12:41:27.884Z,6.65
2022-11-12T12:46:56.739Z,7.30
2022-11-12T12:52:18.523Z,6.45
2022-11-12T12:57:40.664Z,9.88
2022-11-12T13:03:02.496Z,10.95
2022-11-12T13:08:26.307Z,7.65
2022-11-12T13:13:48.228Z,10.68
2022-11-12T13:19:09.944Z,5.95
2022-11-12T13:25:04.473Z,6.05
2022-11-12T13:30:26.083Z,8.95
2022-11-12T13:35:47.812Z,7.53
2022-11-12T13:41:19.429Z,7.88
2022-11-12T13:46:41.511Z,8.98
2022-11-12T13:52:05.685Z,6.18
2022-11-12T13:57:30.732Z,6.90
2022-11-12T14:03:05.282Z,6.18
2022-11-12T14:08:40.324Z,7.88
2022-11-12T14:14:33.890Z,7.82
2022-11-12T14:20:12.769Z,11.35
2022-11-12T14:25:34.870Z,8.55
2022-11-12T14:30:58.889Z,8.35
2022-11-12T14:36:21.170Z,7.53
2022-11-12T14:41:45.951Z,7.78
2022-11-12T14:47:09.516Z,9.90
2022-11-12T14:52:35.314Z,9.25
2022-11-12T14:57:59.212Z,10.20
2022-11-12T15:03:24.454Z,12.27
2022-11-12T15:08:56.780Z,10.65
2022-11-12T15:14:26.685Z,12.35
2022-11-12T15:19:48.400Z,11.10
2022-11-12T15:25:30.962Z,7.75
2022-11-12T15:31:07.625Z,9.32
2022-11-12T15:36:29.395Z,9.15
2022-11-12T15:42:23.447Z,10.85
2022-11-12T15:47:45.512Z,13.45
2022-11-12T15:53:07.349Z,9.68
2022-11-12T15:58:34.173Z,10.35
2022-11-12T16:03:55.831Z,12.43
2022-11-12T16:09:17.562Z,12.77
2022-11-12T16:14:40.186Z,13.15
2022-11-12T16:20:02.004Z,15.30
2022-11-12T16:25:28.213Z,12.27
2022-11-12T16:30:50.840Z,12.25
2022-11-12T16:36:16.035Z,13.95
2022-11-12T16:41:37.730Z,15.18
2022-11-12T16:47:02.452Z,20.02
2022-11-12T16:52:24.102Z,21.00
2022-11-12T16:57:46.046Z,15.52
2022-11-12T17:03:11.447Z,15.53
2022-11-12T17:08:34.175Z,16.67
2022-11-12T17:13:55.994Z,19.65
2022-11-12T17:19:17.671Z,19.73
2022-11-12T17:24:39.346Z,16.33
2022-11-12T17:30:01.212Z,19.20
2022-11-12T17:35:22.930Z,30.67
2022-11-12T17:40:44.680Z,20.50
2022-11-12T17:46:07.983Z,18.73
2022-11-12T17:51:29.724Z,17.55
2022-11-12T17:56:51.419Z,18.23
2022-11-12T18:02:13.173Z,18.27
2022-11-12T18:07:34.852Z,17.95
2022-11-12T18:12:57.671Z,20.85
2022-11-12T18:18:19.722Z,21.27
2022-11-12T18:23:43.728Z,18.05
2022-11-12T18:29:05.694Z,19.25
2022-11-12T18:34:27.466Z,17.73
2022-11-12T18:39:49.148Z,21.07
2022-11-12T18:45:10.930Z,24.42
2022-11-12T18:50:33.723Z,21.40
2022-11-12T18:55:59.848Z,22.80
2022-11-12T19:01:23.499Z,23.33
2022-11-12T19:06:45.309Z,21.87
2022-11-12T19:12:07.044Z,23.30
2022-11-12T19:17:31.163Z,23.77
2022-11-12T19:22:54.107Z,24.87
2022-11-12T19:28:15.802Z,22.90
2022-11-12T19:33:37.521Z,21.27
2022-11-12T19:39:02.365Z,24.50
2022-11-12T19:44:24.077Z,20.73
2022-11-12T19:49:45.745Z,19.87
2022-11-12T19:55:07.808Z,18.97
2022-11-12T20:00:29.538Z,18.23
2022-11-12T20:05:54.347Z,20.17
2022-11-12T20:11:16.880Z,20.37
2022-11-12T20:16:39.384Z,22.00
2022-11-12T20:22:01.095Z,21.87
2022-11-12T20:27:23.115Z,21.53
2022-11-12T20:32:44.955Z,23.90
2022-11-12T20:38:06.676Z,20.10
2022-11-12T20:43:31.884Z,21.40
2022-11-12T20:48:54.753Z,18.53
2022-11-12T20:54:20.730Z,18.80
2022-11-12T20:59:43.230Z,19.10
2022-11-12T21:05:05.824Z,20.63
2022-11-12T21:10:27.591Z,23.40
2022-11-12T21:15:50.146Z,20.53
2022-11-12T21:21:14.317Z,19.90
2022-11-12T21:26:36.399Z,26.03
2022-11-12T21:31:58.184Z,25.97
2022-11-12T21:37:20.000Z,26.07
2022-11-12T21:42:42.530Z,20.90
2022-11-12T21:48:05.218Z,21.93
2022-11-12T21:53:27.234Z,19.23
2022-11-12T21:58:49.010Z,21.17
2022-11-12T22:04:15.487Z,21.83
2022-11-12T22:09:39.761Z,24.97
2022-11-12T22:15:01.554Z,20.83
2022-11-12T22:20:23.466Z,19.70
2022-11-12T22:25:45.173Z,26.30
2022-11-12T22:31:10.237Z,24.37
2022-11-12T22:36:34.690Z,23.47
2022-11-12T22:41:56.379Z,17.97
2022-11-12T22:47:18.066Z,19.87
2022-11-12T22:52:40.152Z,21.03
2022-11-12T22:58:02.230Z,23.47
2022-11-12T23:03:23.989Z,24.77
2022-11-12T23:08:46.009Z,24.00
2022-11-12T23:14:07.689Z,22.80
2022-11-12T23:19:29.375Z,19.87
2022-11-12T23:24:51.070Z,22.80
2022-11-12T23:30:13.010Z,22.63
2022-11-12T23:35:34.758Z,24.13
2022-11-12T23:40:56.611Z,22.30
2022-11-12T23:46:18.939Z,23.37
2022-11-12T23:51:40.625Z,18.23
2022-11-12T23:57:02.330Z,19.73
